Portada
METAR-TAF:

METAR-TAF

Aeroports :

Base Aèria de Morón

Morón de la Frontera, Espanya

latitud: 37-09N, longitud: 005-37W, altitud: 87 m

Observació

L'informe es va fer fa 56 minuts, a les 05:00 UTC
Vent 5 kt del Sud/Sud-Est, variant entre Est/Sud-Est i Sud
Temperatura 5°C
Humitat 93%
Pressió 1023 hPa
Visibilitat 10 km o més
sense núvols per sota de 1500 mi sense presència de cumulonimbus.

METAR: LEMO 140500Z 16005KT 120V180 CAVOK 05/04 Q1023 NOSIG

Hora: 06:56 (05:56 UTC)

Pronòstic

L'informe es va fer fa 56 minuts, a les 05:00 UTC
Pronòstic vàlid del 14 a les 06 UTC al 14 a les 15 UTC
Vent 6 kt del Sud-Oest
Visibilitat 10 km o més
sense núvols per sota de 1500 mi sense presència de cumulonimbus.

TAF: LEMO 140500Z 1406/1415 23006KT CAVOK

Observacions i pronòstics meteorològics de més de 4000 aeroports (METAR i TAF).

Les estacions disponibles són els punts grocs i vermells al mapa.

Posi el ratolí al punt desitjat per veure el nom de l'estació.

Feu clic per veure les observacions i els pronòstics meteorològics.

Per canviar el mapa: feu clic els botons verds amb una creu de color negre per apropar; al botó verd amb un guió per allunyar la imatge; o en les fletxes verdes per a mapes adjacents.


METAR-TAF: